Cartersville, South Carolina
Current Conditions -  °F | °C
As of 1:53 AM on Sunday 26 Oct 2014 (Local Time) from KFLO Reporting Station
Clear Clear  
Wind Chill: 53°   Ceiling: Unl
Heat Index: 53°   Visibility: 10mi
Dew Point: 44°   Wind: 7mph
Humidity: 71%   Direction: 260°W
Pressure: 29.9"   Gusts: NA
Location:  34.07°N, 79.933°W
Report Text: KFLO 260553Z AUTO 26006KT 10SM CLR 12/07 A2990 RMK AO2 SLP123 T01170067 10161 20111 56017
Loading
Personal Weather Stations






























Interactive Weather Map
Tropical Storm Tracking
New forecast layout! Learn more

10-Day Weather Forecast

Advertisements
Track Severe Weather on mobile